Airfield :
LOGIN :

Register | Disclaimer

   EN    FR    IT 

 










Legend :    VFR   Marginal VFR   IFR   Intensive IFR   Very Intensive IFR
Visi :
Ceiling :
>= 8 km
>= 3000ft
5 to 8 km
1000 to 3000 ft
1500m to 5 km
500 to 1000 ft
800 to 1500m
200 to 500 ft
< 800m
< 200 ft
Symbols :   Thunderstorms  Fog  Heavy snow  Heavy precipitations  Wind > 20 kt
SIGMETs :     Misc.  Thunderstorms  Icing  Turbulence  Mountain Waves  Volcanic Ashes







- Airport Elevation : 154 ft
- IATA code : SZZ


EPSC - Szczecin Goleniow

CURRENT METAR :
  • 240630Z 29012KT 9999 FEW013 SCT016 BKN022 15/12 Q1015

EXPIRED METARs :
  • 240600Z 29011KT 9999 FEW009 SCT010 15/12 Q1015
  • 240530Z 27007KT 240V310 9999 FEW006 SCT008 13/12 Q1015
  • 240500Z 25006KT 9999 SCT006 BKN007 BKN010 12/11 Q1015
  • 240430Z 26006KT 9999 BKN006 BKN017 11/11 Q1015
  • 240400Z 27006KT 9999 FEW004 SCT006 BKN017 11/10 Q1015

TAF TAF EPSC
Valid from the 24 at 06:00 until the 25 at 06:00 UTC


240530Z 2406/2506 25006KT 9999 BKN006 BKN012
BECMG 2407/2409 33010KT BKN040
TEMPO 2408/2418 SHRA SCT008 BKN030CB
BECMG 2420/2422 27004KT
No reported NOTAMs for that airfield.



MET'MAP, your aeronautical weather chart ! - Copyright ORBIFLY December 2007 - Disclaimer

ORBIFLY MET'MAP TEAM :

Programming & Development : Alexandra Zaïnal
Concept & Development : Baudouin d'Aumeries
Co-Development & Prog : Marc-Olivier Méhu
Technical & hardware support : Manuel Goepfert

Contact : metmap@orbifly.com




SOURCES & CREDITS :

   NOAA